Time;durP1;ratioP1;P1;durP2;ratioP2;P2;SDS_P1;SDS_P2;PMS_P1;PMS_P2;Temp;Humidity;BMP_temperature;BMP_pressure;BME280_temperature;BME280_humidity;BME280_pressure;Samples;Min_cycle;Max_cycle;Signal;HPM_P1;HPM_P2
2021/01/12 00:00:45;;;;;;;12.97;9.10;;;1.50;99.90;;;2.30;82.98;99732.88;4990763;28;20290;-63
2021/01/12 00:03:12;;;;;;;14.10;9.90;;;1.60;99.90;;;2.26;83.67;99731.59;4990889;28;20231;-64
2021/01/12 00:05:40;;;;;;;15.50;9.90;;;1.60;99.90;;;2.22;83.61;99734.75;4991098;28;20211;-63
2021/01/12 00:08:08;;;;;;;12.03;9.13;;;1.50;99.90;;;2.22;83.72;99729.44;4990364;28;20214;-63
2021/01/12 00:10:36;;;;;;;13.27;9.60;;;1.50;99.90;;;2.33;83.61;99723.72;4990592;28;20354;-63
2021/01/12 00:13:03;;;;;;;13.23;9.57;;;1.60;99.90;;;2.29;83.83;99723.25;4990303;28;20693;-63
2021/01/12 00:15:31;;;;;;;14.73;9.80;;;1.60;99.90;;;2.25;84.43;99718.47;4990749;28;20257;-63
2021/01/12 00:17:58;;;;;;;12.10;9.13;;;1.60;99.90;;;2.21;84.64;99717.16;4990319;28;20243;-63
2021/01/12 00:20:25;;;;;;;13.40;9.93;;;1.50;99.90;;;2.14;85.24;99718.88;4990113;28;20710;-63
2021/01/12 00:22:53;;;;;;;14.30;10.17;;;1.50;99.90;;;2.19;85.36;99712.03;4990402;28;20202;-63
2021/01/12 00:25:21;;;;;;;15.30;9.97;;;1.50;99.90;;;2.27;84.59;99701.34;4990378;28;20609;-63
2021/01/12 00:27:55;;;;;;;13.73;10.33;;;1.50;99.90;;;2.27;84.59;99685.41;4990247;28;20604;-63
2021/01/12 00:30:23;;;;;;;14.17;10.10;;;1.60;99.90;;;2.31;84.60;99683.22;4990179;28;20707;-63
2021/01/12 00:32:50;;;;;;;16.03;11.10;;;1.60;99.90;;;2.19;85.54;99688.13;4990071;28;20639;-63
2021/01/12 00:35:19;;;;;;;14.87;10.17;;;1.60;99.90;;;2.30;85.43;99689.56;4990377;28;20316;-64
2021/01/12 00:37:46;;;;;;;13.87;10.17;;;1.60;99.90;;;2.40;84.60;99684.81;4990185;28;20207;-63
2021/01/12 00:40:15;;;;;;;13.93;10.17;;;1.50;99.90;;;2.53;84.24;99692.16;4990088;28;20200;-63
2021/01/12 00:42:43;;;;;;;16.63;11.07;;;1.60;99.90;;;2.46;84.42;99679.59;4989713;28;20204;-64
2021/01/12 00:45:11;;;;;;;14.97;10.67;;;1.60;99.90;;;2.42;84.61;99683.59;4989894;28;20729;-63
2021/01/12 00:47:39;;;;;;;14.70;10.67;;;1.70;99.90;;;2.40;84.76;99671.53;4989970;28;20238;-63
2021/01/12 00:50:07;;;;;;;15.70;10.90;;;1.70;99.90;;;2.46;85.00;99676.09;4990102;28;20286;-63
2021/01/12 00:52:34;;;;;;;15.73;11.03;;;1.70;99.90;;;2.42;84.68;99667.66;4990003;28;20204;-63
2021/01/12 00:55:02;;;;;;;16.17;11.43;;;1.70;99.90;;;2.38;85.04;99663.69;4989845;28;20255;-67
2021/01/12 00:57:30;;;;;;;16.37;11.40;;;1.60;99.90;;;2.34;85.27;99662.44;4988972;28;20781;-66
2021/01/12 00:59:57;;;;;;;16.37;11.53;;;1.70;99.90;;;2.26;86.40;99661.66;4989750;28;20291;-66
2021/01/12 01:02:24;;;;;;;15.50;11.07;;;1.60;99.90;;;2.27;86.40;99660.66;4989912;28;20290;-67
2021/01/12 01:04:51;;;;;;;15.50;10.83;;;1.60;99.90;;;2.25;86.49;99638.78;4989664;28;20203;-67
2021/01/12 01:07:20;;;;;;;14.37;10.77;;;1.50;99.90;;;2.41;86.19;99646.59;4989932;28;20213;-68
2021/01/12 01:09:47;;;;;;;16.07;10.37;;;1.60;99.90;;;2.43;85.93;99641.94;4990018;28;20249;-67
2021/01/12 01:12:15;;;;;;;16.93;11.30;;;1.60;99.90;;;2.44;86.50;99632.94;4989678;28;20862;-67
2021/01/12 01:14:43;;;;;;;16.80;11.20;;;1.60;99.90;;;2.44;86.04;99632.94;4989832;28;20223;-68
2021/01/12 01:17:10;;;;;;;14.00;10.53;;;1.70;99.90;;;2.41;86.37;99635.97;4989612;28;20204;-67
2021/01/12 01:19:37;;;;;;;14.60;10.43;;;1.70;99.90;;;2.42;86.37;99635.78;4989889;28;20212;-67
2021/01/12 01:22:04;;;;;;;16.63;11.40;;;1.70;99.90;;;2.32;86.71;99629.91;4989419;28;20234;-66
2021/01/12 01:24:32;;;;;;;13.63;10.33;;;1.60;99.90;;;2.54;85.93;99616.75;4989620;28;20208;-67
2021/01/12 01:26:59;;;;;;;14.53;11.10;;;1.60;99.90;;;2.48;86.84;99627.09;5079150;28;20243;-66
2021/01/12 01:29:26;;;;;;;16.13;11.00;;;1.70;99.90;;;2.58;86.37;99612.69;5091484;28;20657;-66
2021/01/12 01:31:54;;;;;;;16.10;11.20;;;1.70;99.90;;;2.45;86.64;99622.13;5091491;28;20236;-67
2021/01/12 01:34:22;;;;;;;14.90;10.70;;;1.70;99.90;;;2.31;87.68;99614.13;5091481;28;20267;-66
2021/01/12 01:36:49;;;;;;;15.57;11.00;;;1.70;99.90;;;2.32;87.31;99608.63;5091517;28;20200;-66
2021/01/12 01:39:16;;;;;;;15.67;10.53;;;1.70;99.90;;;2.43;87.17;99605.56;5091770;28;20261;-67
2021/01/12 01:41:43;;;;;;;15.10;10.77;;;1.70;99.90;;;2.46;86.80;99596.38;5090983;28;20877;-66
2021/01/12 01:44:10;;;;;;;13.23;10.03;;;1.70;99.90;;;2.54;86.76;99596.28;5091398;28;20206;-67
2021/01/12 01:46:42;;;;;;;15.73;10.87;;;1.70;99.90;;;2.44;86.87;99606.34;5091810;28;20231;-66
2021/01/12 01:49:11;;;;;;;15.63;10.43;;;1.80;99.90;;;2.34;87.05;99600.47;5091476;28;20222;-67
2021/01/12 01:51:39;;;;;;;16.30;10.30;;;1.70;99.90;;;2.47;86.73;99601.50;5091545;28;20243;-67
2021/01/12 01:54:08;;;;;;;15.93;10.53;;;1.70;99.90;;;2.43;86.53;99597.59;5091498;28;20641;-66
2021/01/12 01:56:35;;;;;;;13.83;9.63;;;1.70;99.90;;;2.42;86.79;99595.91;5091146;28;20196;-66
2021/01/12 01:59:05;;;;;;;14.30;10.63;;;1.70;99.90;;;2.38;87.11;99593.81;5091349;28;20209;-66
2021/01/12 02:01:35;;;;;;;16.80;11.07;;;1.70;99.90;;;2.41;87.48;99596.94;4998551;28;20200;-67
2021/01/12 02:04:15;;;;;;;15.97;10.97;;;1.60;99.90;;;2.59;87.19;99585.13;4988931;28;20549;-67
2021/01/12 02:06:45;;;;;;;16.07;11.00;;;1.70;99.90;;;2.52;87.14;99586.84;4988951;28;20187;-67
2021/01/12 02:09:21;;;;;;;16.27;10.20;;;1.70;99.90;;;2.56;87.68;99577.50;4989519;28;20242;-67
2021/01/12 02:11:55;;;;;;;13.43;10.17;;;1.70;99.90;;;2.43;88.27;99573.66;4992437;28;20231;-67
2021/01/12 02:14:28;;;;;;;15.67;10.47;;;1.70;99.90;;;2.53;87.49;99576.03;4992444;28;20297;-63
2021/01/12 02:16:58;;;;;;;14.97;10.13;;;1.70;99.90;;;2.42;88.33;99573.81;4992417;28;20215;-63
2021/01/12 02:19:28;;;;;;;14.57;10.40;;;1.70;99.90;;;2.60;87.41;99563.69;4992361;28;20211;-63
2021/01/12 02:22:03;;;;;;;16.20;10.20;;;1.70;99.90;;;2.52;88.02;99569.06;4991882;28;20666;-63
2021/01/12 02:24:34;;;;;;;16.70;11.20;;;1.70;99.90;;;2.58;87.03;99560.38;4991906;28;20185;-63
2021/01/12 02:27:05;;;;;;;17.27;10.67;;;1.80;99.90;;;2.65;87.38;99555.97;4992110;28;20195;-63
2021/01/12 02:29:32;;;;;;;14.93;10.87;;;1.80;99.90;;;2.61;88.39;99553.84;4992033;28;20646;-63
2021/01/12 02:32:00;;;;;;;14.87;10.00;;;1.80;99.90;;;2.45;89.41;99550.38;4991867;28;20227;-63
2021/01/12 02:34:29;;;;;;;14.53;10.03;;;1.80;99.90;;;2.54;88.66;99552.97;4991879;28;20231;-64
2021/01/12 02:37:00;;;;;;;14.80;10.83;;;1.70;99.90;;;2.61;88.76;99540.56;4991955;28;20257;-64
2021/01/12 02:39:28;;;;;;;13.37;10.03;;;1.80;99.90;;;2.60;88.50;99541.56;4991499;28;20253;-64
2021/01/12 02:41:56;;;;;;;19.70;10.83;;;1.80;99.90;;;2.59;88.27;99545.25;4991687;28;20723;-63
2021/01/12 02:44:25;;;;;;;14.17;9.90;;;1.80;99.90;;;2.72;88.10;99542.75;4992087;28;20287;-62
2021/01/12 02:46:54;;;;;;;14.70;10.03;;;1.80;99.90;;;2.61;88.68;99537.91;4991865;28;20291;-63
2021/01/12 02:49:22;;;;;;;14.47;9.90;;;1.80;99.90;;;2.62;88.24;99539.56;4991924;28;20766;-63
2021/01/12 02:51:49;;;;;;;14.80;10.63;;;1.80;99.90;;;2.72;86.83;99538.28;4991380;28;20204;-63
2021/01/12 02:54:17;;;;;;;13.67;9.80;;;1.90;99.90;;;2.77;86.73;99521.75;4991287;28;20254;-63
2021/01/12 02:56:44;;;;;;;14.97;9.90;;;1.90;99.90;;;2.66;87.13;99524.88;4991386;28;20222;-63
2021/01/12 02:59:12;;;;;;;13.40;10.20;;;1.90;99.90;;;2.75;86.83;99518.47;4992247;28;20843;-63
2021/01/12 03:01:39;;;;;;;13.20;9.53;;;1.90;99.90;;;2.66;87.58;99503.59;4993173;28;20246;-63
2021/01/12 03:04:06;;;;;;;15.13;9.93;;;1.80;99.90;;;2.72;87.69;99493.09;4992352;28;20203;-63
2021/01/12 03:06:34;;;;;;;14.50;10.33;;;1.80;99.90;;;2.53;88.39;99500.78;4991345;28;20671;-64
2021/01/12 03:09:01;;;;;;;13.77;10.47;;;1.80;99.90;;;2.63;89.36;99498.66;4991092;28;20329;-64
2021/01/12 03:11:29;;;;;;;14.10;9.90;;;1.80;99.90;;;2.53;90.75;99492.81;4991119;28;20294;-64
2021/01/12 03:13:57;;;;;;;14.73;9.83;;;1.80;99.90;;;2.38;92.80;99490.97;4991440;28;20223;-64
2021/01/12 03:16:26;;;;;;;12.43;9.53;;;1.70;99.90;;;2.30;94.17;99484.97;4991184;28;20736;-63
2021/01/12 03:18:53;;;;;;;12.70;9.47;;;1.60;99.90;;;2.25;94.40;99469.56;4991412;28;20211;-64
2021/01/12 03:21:20;;;;;;;13.80;10.20;;;1.60;99.90;;;2.21;94.51;99473.59;4991004;28;20748;-63
2021/01/12 03:23:48;;;;;;;14.50;10.20;;;1.50;99.90;;;1.93;96.64;99461.94;4991045;28;20243;-64
2021/01/12 03:26:20;;;;;;;15.37;10.90;;;1.40;99.90;;;1.97;97.79;99457.91;4990927;28;20290;-64
2021/01/12 03:28:47;;;;;;;16.90;11.70;;;1.30;99.90;;;2.03;98.15;99457.19;4991361;28;20191;-64
2021/01/12 03:31:14;;;;;;;16.57;11.70;;;1.30;99.90;;;2.12;99.32;99453.44;4991053;28;20200;-64
2021/01/12 03:33:43;;;;;;;15.53;11.57;;;1.30;99.90;;;2.08;100.00;99449.50;4990886;28;20201;-63
2021/01/12 03:36:10;;;;;;;15.97;11.03;;;1.30;99.90;;;1.95;100.00;99445.81;4991464;28;20275;-64
2021/01/12 03:38:37;;;;;;;17.03;11.83;;;1.30;99.90;;;1.92;100.00;99441.72;4990735;28;20222;-65
2021/01/12 03:41:06;;;;;;;16.87;11.50;;;1.30;99.90;;;1.80;100.00;99440.50;4991062;28;20720;-64
2021/01/12 03:43:33;;;;;;;16.83;11.93;;;1.20;99.90;;;1.84;100.00;99439.16;4991171;28;20203;-64
2021/01/12 03:46:00;;;;;;;19.13;12.37;;;1.10;99.90;;;1.67;100.00;99426.22;4991096;28;20206;-65
2021/01/12 03:48:28;;;;;;;17.20;11.80;;;1.00;99.90;;;1.71;100.00;99432.81;4990775;28;20637;-64
2021/01/12 03:50:56;;;;;;;17.20;12.33;;;1.00;99.90;;;1.67;100.00;99415.59;4991045;28;20207;-65
2021/01/12 03:53:23;;;;;;;17.63;12.00;;;0.90;99.90;;;1.70;100.00;99408.09;4990685;28;20280;-64
2021/01/12 03:55:50;;;;;;;17.23;12.00;;;1.00;99.90;;;1.62;100.00;99413.50;4990363;28;20716;-64
2021/01/12 03:58:18;;;;;;;15.33;12.10;;;0.90;99.90;;;1.57;100.00;99404.41;4990606;28;20225;-64
2021/01/12 04:00:46;;;;;;;18.07;12.13;;;0.90;99.90;;;1.65;100.00;99407.00;4990434;28;20291;-63
2021/01/12 04:03:13;;;;;;;17.77;11.70;;;0.90;99.90;;;1.63;100.00;99415.13;4990627;28;20608;-63
2021/01/12 04:05:40;;;;;;;17.97;12.63;;;0.90;99.90;;;1.57;100.00;99407.06;4990420;28;20249;-63
2021/01/12 04:08:11;;;;;;;18.00;12.20;;;0.90;99.90;;;1.52;100.00;99404.16;4990270;28;20302;-63
2021/01/12 04:10:39;;;;;;;17.47;12.07;;;0.80;99.90;;;1.59;100.00;99411.19;4990278;28;20600;-63
2021/01/12 04:13:06;;;;;;;16.70;12.03;;;0.80;99.90;;;1.57;100.00;99402.59;4990290;28;20753;-63
2021/01/12 04:15:33;;;;;;;19.07;12.83;;;0.80;99.90;;;1.57;100.00;99401.78;4990649;28;20237;-63
2021/01/12 04:18:01;;;;;;;18.73;11.90;;;0.80;99.90;;;1.63;100.00;99396.56;4990741;28;20227;-64
2021/01/12 04:20:28;;;;;;;17.80;12.73;;;0.90;99.90;;;1.55;100.00;99391.34;4990536;28;20273;-63
2021/01/12 04:22:55;;;;;;;16.93;12.10;;;0.80;99.90;;;1.62;100.00;99391.44;4990110;28;20238;-63
2021/01/12 04:25:23;;;;;;;16.00;11.37;;;0.90;99.90;;;1.53;100.00;99389.84;4990352;28;20207;-63
2021/01/12 04:27:50;;;;;;;17.93;12.37;;;0.90;99.90;;;1.55;100.00;99380.72;4990481;28;20225;-62
2021/01/12 04:30:18;;;;;;;21.40;13.60;;;0.80;99.90;;;1.51;100.00;99391.84;4990356;28;20292;-63
2021/01/12 04:32:46;;;;;;;19.80;13.80;;;0.90;99.90;;;1.58;100.00;99385.66;4989123;28;20326;-63
2021/01/12 04:35:13;;;;;;;19.77;12.67;;;0.80;99.90;;;1.64;100.00;99378.81;4990303;28;20316;-62
2021/01/12 04:37:40;;;;;;;18.63;13.17;;;0.90;99.90;;;1.61;100.00;99373.88;4989819;28;20241;-63
2021/01/12 04:40:09;;;;;;;18.30;12.63;;;0.90;99.90;;;1.65;100.00;99368.00;4990203;28;20241;-63
2021/01/12 04:42:37;;;;;;;17.33;12.43;;;0.90;99.90;;;1.64;100.00;99371.66;4990263;28;20195;-62
2021/01/12 04:45:06;;;;;;;17.33;12.43;;;0.90;99.90;;;1.62;100.00;99364.91;4990248;28;20200;-63
2021/01/12 04:47:34;;;;;;;19.17;12.70;;;0.90;99.90;;;1.73;100.00;99359.13;4990086;28;20286;-63
2021/01/12 04:50:04;;;;;;;18.30;12.10;;;0.90;99.90;;;1.70;100.00;99352.34;4989810;28;20206;-62
2021/01/12 04:52:43;;;;;;;18.40;12.43;;;1.00;99.90;;;1.71;100.00;99353.19;4989727;28;20195;-63
2021/01/12 04:55:12;;;;;;;17.57;12.20;;;1.00;99.90;;;1.79;100.00;99353.09;4990152;28;20298;-63
2021/01/12 04:57:43;;;;;;;18.37;11.90;;;1.00;99.90;;;1.96;100.00;99347.38;4989996;28;20637;-62
2021/01/12 05:00:18;;;;;;;16.73;11.30;;;1.10;99.90;;;1.75;100.00;99343.84;4989552;28;20650;-63
2021/01/12 05:02:59;;;;;;;19.50;11.90;;;1.10;99.90;;;1.87;100.00;99351.16;4989857;28;20631;-63
2021/01/12 05:05:30;;;;;;;17.70;11.97;;;1.10;99.90;;;1.97;100.00;99341.09;4989730;28;20223;-63
2021/01/12 05:08:02;;;;;;;16.97;11.57;;;1.20;99.90;;;1.85;100.00;99336.41;4989379;28;20243;-63
2021/01/12 05:10:34;;;;;;;17.53;11.47;;;1.20;99.90;;;1.95;100.00;99324.50;4989446;28;20206;-63
2021/01/12 05:13:08;;;;;;;17.17;11.07;;;1.20;99.90;;;1.93;100.00;99329.19;4989578;28;20608;-63
2021/01/12 05:15:37;;;;;;;18.30;11.90;;;1.10;99.90;;;2.08;100.00;99324.66;4989761;28;20270;-64
2021/01/12 05:18:07;;;;;;;15.30;11.17;;;1.20;99.90;;;1.98;100.00;99321.47;4989798;28;20236;-62
2021/01/12 05:20:45;;;;;;;16.33;10.93;;;1.20;99.90;;;2.03;100.00;99315.63;4989546;28;20251;-63
2021/01/12 05:23:21;;;;;;;17.20;11.60;;;1.20;99.90;;;2.07;100.00;99319.53;4989062;28;20190;-63
2021/01/12 05:25:53;;;;;;;16.57;11.33;;;1.30;99.90;;;2.10;100.00;99306.72;4989136;28;20650;-63
2021/01/12 05:28:21;;;;;;;16.83;10.80;;;1.30;99.90;;;2.07;100.00;99309.75;4989823;28;20190;-63
2021/01/12 05:30:49;;;;;;;15.00;10.70;;;1.30;99.90;;;2.03;100.00;99300.50;4989457;28;20243;-63
2021/01/12 05:33:20;;;;;;;14.43;10.10;;;1.30;99.90;;;2.05;100.00;99293.16;4989213;28;20284;-62
2021/01/12 05:35:49;;;;;;;15.70;11.07;;;1.30;99.90;;;2.05;100.00;99287.88;4989032;28;20671;-63
2021/01/12 05:38:27;;;;;;;15.20;10.53;;;1.30;99.90;;;2.10;100.00;99284.63;4989044;28;20204;-64
2021/01/12 05:40:57;;;;;;;14.43;10.60;;;1.30;99.90;;;1.96;100.00;99282.84;4989524;28;20186;-63
2021/01/12 05:43:38;;;;;;;18.53;11.80;;;1.30;99.90;;;1.97;100.00;99273.88;4989572;28;20245;-64
2021/01/12 05:46:08;;;;;;;16.70;11.20;;;1.20;99.90;;;1.99;100.00;99278.00;4992300;28;20275;-64
2021/01/12 05:48:40;;;;;;;17.73;11.63;;;1.20;99.90;;;1.97;100.00;99273.88;4993381;28;20206;-64
2021/01/12 05:51:09;;;;;;;17.30;11.80;;;1.20;99.90;;;1.84;100.00;99265.75;4992730;28;20657;-63
2021/01/12 05:54:09;;;;;;;15.77;10.40;;;1.20;99.90;;;1.78;100.00;99262.00;4992542;28;20207;-62
2021/01/12 05:56:38;;;;;;;18.67;11.87;;;1.10;99.90;;;1.84;100.00;99255.13;4992798;28;20215;-63
2021/01/12 05:59:16;;;;;;;15.63;10.23;;;1.10;99.90;;;1.90;100.00;99257.88;4992936;28;20228;-63
2021/01/12 06:01:51;;;;;;;17.17;11.93;;;1.20;99.90;;;1.75;100.00;99256.25;4992858;28;20280;-64
2021/01/12 06:04:19;;;;;;;17.10;11.57;;;1.10;99.90;;;1.79;100.00;99249.56;4992844;28;20578;-63
2021/01/12 06:06:48;;;;;;;14.27;10.47;;;1.00;99.90;;;1.87;100.00;99250.28;4992634;28;20264;-63
2021/01/12 06:09:17;;;;;;;16.00;9.97;;;1.10;99.90;;;1.84;100.00;99241.88;4992563;28;20299;-63
2021/01/12 06:11:47;;;;;;;15.23;9.70;;;1.10;99.90;;;1.68;100.00;99232.28;4992057;28;20557;-63
2021/01/12 06:14:17;;;;;;;13.60;10.00;;;1.10;99.90;;;1.86;100.00;99240.66;4992291;28;20577;-63
2021/01/12 06:16:46;;;;;;;14.00;9.83;;;1.10;99.90;;;1.91;100.00;99230.28;4992335;28;20294;-62
2021/01/12 06:19:17;;;;;;;14.80;9.93;;;1.10;99.90;;;1.87;100.00;99229.03;4992454;28;20290;-62
2021/01/12 06:22:15;;;;;;;11.93;7.93;;;1.20;99.90;;;1.89;100.00;99215.59;4992463;28;20281;-62
2021/01/12 06:24:57;;;;;;;11.43;9.10;;;1.10;99.90;;;1.93;100.00;99225.63;4992338;28;20230;-62
2021/01/12 06:27:28;;;;;;;10.77;7.80;;;1.20;99.90;;;1.94;100.00;99221.97;4992300;28;20207;-63
2021/01/12 06:30:00;;;;;;;13.07;8.70;;;1.20;99.90;;;1.94;100.00;99211.34;4992324;28;20219;-63
2021/01/12 06:32:31;;;;;;;10.33;8.17;;;1.20;99.90;;;1.90;100.00;99202.13;4991803;28;20228;-63
2021/01/12 06:35:00;;;;;;;10.70;7.53;;;1.20;99.90;;;2.03;100.00;99207.56;4991831;28;20676;-63
2021/01/12 06:37:29;;;;;;;11.43;7.80;;;1.30;99.90;;;1.99;100.00;99211.63;4991850;28;20264;-62
2021/01/12 06:39:59;;;;;;;10.23;7.43;;;1.30;99.90;;;1.99;100.00;99213.44;4991908;28;20298;-63
2021/01/12 06:42:30;;;;;;;10.80;7.50;;;1.30;99.90;;;2.04;100.00;99197.75;4991805;28;20191;-63
2021/01/12 06:44:59;;;;;;;11.20;8.10;;;1.30;99.90;;;1.94;100.00;99191.94;4991983;28;20245;-62
2021/01/12 06:47:29;;;;;;;8.63;6.80;;;1.30;99.90;;;1.89;100.00;99192.50;4991876;28;20212;-62
2021/01/12 06:50:08;;;;;;;10.30;7.73;;;1.20;99.90;;;1.95;100.00;99182.94;4991459;28;20208;-63
2021/01/12 06:52:44;;;;;;;10.67;7.67;;;1.20;99.90;;;1.88;100.00;99198.00;4991518;28;20211;-62
2021/01/12 06:55:14;;;;;;;10.70;7.40;;;1.20;99.90;;;1.90;100.00;99188.00;4991618;28;20203;-63
2021/01/12 06:57:45;;;;;;;9.90;7.10;;;1.20;99.90;;;1.86;100.00;99186.75;4993485;28;20235;-63
2021/01/12 07:00:16;;;;;;;9.80;7.07;;;1.20;99.90;;;1.75;100.00;99190.72;4992073;28;20607;-63
2021/01/12 07:02:44;;;;;;;11.00;7.53;;;1.10;99.90;;;1.83;100.00;99185.28;4991659;28;20274;-63
2021/01/12 07:05:15;;;;;;;9.13;7.33;;;1.10;99.90;;;1.79;100.00;99176.06;4991608;28;20209;-63
2021/01/12 07:07:47;;;;;;;9.63;7.23;;;1.00;99.90;;;1.83;100.00;99177.31;4991748;28;20253;-63
2021/01/12 07:10:17;;;;;;;9.83;7.87;;;1.00;99.90;;;1.82;100.00;99174.88;4992162;28;20282;-64
2021/01/12 07:12:46;;;;;;;9.30;6.83;;;1.10;99.90;;;1.85;100.00;99167.34;4992293;28;20605;-63
2021/01/12 07:15:17;;;;;;;10.37;7.27;;;1.10;99.90;;;1.82;100.00;99161.59;4991475;28;20223;-63
2021/01/12 07:17:46;;;;;;;10.07;7.00;;;1.00;99.90;;;1.79;100.00;99162.81;4991545;28;20277;-62
2021/01/12 07:20:17;;;;;;;9.77;7.00;;;1.10;99.90;;;1.69;100.00;99154.28;4991635;28;20211;-62
2021/01/12 07:22:55;;;;;;;9.43;6.90;;;1.00;99.90;;;1.74;100.00;99162.50;4991172;28;20187;-62
2021/01/12 07:25:25;;;;;;;9.93;6.80;;;1.00;99.90;;;1.74;100.00;99159.88;4991170;28;20561;-63
2021/01/12 07:28:05;;;;;;;9.50;6.77;;;1.00;99.90;;;1.74;100.00;99156.41;4991614;28;20188;-62
2021/01/12 07:30:36;;;;;;;9.30;6.80;;;1.10;99.90;;;1.72;100.00;99153.94;4991232;28;20183;-62
2021/01/12 07:33:06;;;;;;;9.77;6.77;;;1.00;99.90;;;1.79;100.00;99148.69;4991045;28;20246;-62
2021/01/12 07:35:36;;;;;;;10.53;7.27;;;1.00;99.90;;;1.82;100.00;99150.97;4990971;28;20235;-62
2021/01/12 07:38:04;;;;;;;9.57;7.17;;;1.00;99.90;;;1.81;100.00;99142.19;4991675;28;20211;-62
2021/01/12 07:40:32;;;;;;;10.67;7.17;;;1.00;99.90;;;1.77;100.00;99151.53;4991623;28;20219;-61
2021/01/12 07:43:03;;;;;;;9.03;7.23;;;1.00;99.90;;;1.84;100.00;99141.00;4990916;28;20653;-62
2021/01/12 07:45:34;;;;;;;8.53;6.90;;;1.10;99.90;;;1.66;100.00;99138.75;4990797;28;20184;-62
2021/01/12 07:48:03;;;;;;;9.93;7.33;;;1.00;99.90;;;1.78;100.00;99144.38;4991242;28;20307;-62
2021/01/12 07:50:31;;;;;;;9.10;7.07;;;1.00;99.90;;;1.76;100.00;99139.25;4990930;28;20224;-62
2021/01/12 07:52:59;;;;;;;10.33;6.97;;;1.00;99.90;;;1.79;100.00;99138.09;4990751;28;20205;-61
2021/01/12 07:55:27;;;;;;;10.40;6.93;;;1.00;99.90;;;1.83;100.00;99131.38;4990822;28;20231;-62
2021/01/12 07:57:56;;;;;;;10.47;7.50;;;1.00;99.90;;;1.77;100.00;99127.66;4991195;28;20199;-62
2021/01/12 08:00:25;;;;;;;8.23;6.70;;;1.00;99.90;;;1.78;100.00;99131.94;4990902;28;20291;-62
2021/01/12 08:02:55;;;;;;;10.40;6.97;;;1.00;99.90;;;1.78;100.00;99123.16;4989608;28;20202;-63
2021/01/12 08:05:25;;;;;;;8.23;6.60;;;1.10;99.90;;;1.80;100.00;99124.63;4991075;28;20208;-62
2021/01/12 08:08:00;;;;;;;10.80;7.83;;;1.10;99.90;;;1.82;100.00;99122.59;4986818;28;20304;-60
2021/01/12 08:10:29;;;;;;;9.70;7.27;;;1.10;99.90;;;1.85;100.00;99122.22;4987162;28;20607;-60
2021/01/12 08:13:07;;;;;;;9.10;7.33;;;1.10;99.90;;;1.78;100.00;99116.00;4987512;28;20267;-59
2021/01/12 08:15:36;;;;;;;10.73;6.57;;;1.00;99.90;;;1.90;100.00;99103.06;4987879;28;20314;-60
2021/01/12 08:18:10;;;;;;;10.37;6.27;;;1.10;99.90;;;1.84;100.00;99098.50;4987694;28;20265;-63
2021/01/12 08:20:38;;;;;;;8.90;6.40;;;1.10;99.90;;;1.89;100.00;99106.72;4987695;28;20276;-59
2021/01/12 08:23:06;;;;;;;9.13;6.73;;;1.10;99.90;;;1.75;100.00;99097.81;4987505;28;20211;-59
2021/01/12 08:25:35;;;;;;;9.00;6.73;;;1.10;99.90;;;1.97;100.00;99101.28;4987385;28;20201;-59
2021/01/12 08:28:04;;;;;;;8.83;6.17;;;1.20;99.90;;;2.01;100.00;99095.38;4987504;28;20199;-60
2021/01/12 08:30:33;;;;;;;8.07;6.47;;;1.20;99.90;;;1.94;100.00;99091.88;4987122;28;20253;-63
2021/01/12 08:33:08;;;;;;;8.70;6.50;;;1.20;99.90;;;1.92;100.00;99093.06;4986355;28;20591;-63
2021/01/12 08:35:44;;;;;;;7.47;5.90;;;1.20;99.90;;;2.00;100.00;99085.78;4986800;28;20207;-62
2021/01/12 08:38:13;;;;;;;7.80;5.47;;;1.20;99.90;;;2.03;100.00;99081.94;4986923;28;20268;-63
2021/01/12 08:40:46;;;;;;;8.43;6.10;;;1.20;99.90;;;2.11;100.00;99085.28;4986482;28;20648;-62
2021/01/12 08:43:18;;;;;;;7.03;5.90;;;1.30;99.90;;;1.94;100.00;99083.91;4987048;28;20190;-62
2021/01/12 08:45:46;;;;;;;8.27;5.73;;;1.30;99.90;;;1.91;100.00;99081.63;4986896;28;20214;-62
2021/01/12 08:48:17;;;;;;;7.73;5.47;;;1.20;99.90;;;2.08;100.00;99077.69;4986528;28;20558;-61
2021/01/12 08:50:46;;;;;;;8.93;5.63;;;1.40;99.90;;;2.06;100.00;99078.91;4986993;28;20228;-61
2021/01/12 08:53:16;;;;;;;8.20;5.50;;;1.30;99.90;;;2.14;100.00;99090.22;4986518;28;20211;-61
2021/01/12 08:55:43;;;;;;;6.00;5.03;;;1.30;99.90;;;2.21;100.00;99085.78;4986384;28;20310;-62
2021/01/12 08:58:12;;;;;;;6.87;5.53;;;1.40;99.90;;;2.28;100.00;99081.31;4986392;28;20199;-63
2021/01/12 09:00:41;;;;;;;6.73;4.57;;;1.40;99.90;;;2.22;100.00;99082.09;4986619;28;20203;-63
2021/01/12 09:03:14;;;;;;;4.63;4.07;;;1.50;99.90;;;2.21;100.00;99074.31;4986650;28;20736;-63
2021/01/12 09:05:43;;;;;;;4.97;4.07;;;1.50;99.90;;;2.34;100.00;99077.88;4986382;28;20723;-63
2021/01/12 09:08:16;;;;;;;4.83;4.03;;;1.50;99.90;;;2.37;100.00;99068.69;4986322;28;20238;-62
2021/01/12 09:10:43;;;;;;;4.53;3.80;;;1.50;99.90;;;2.36;100.00;99072.38;4986552;28;20612;-62
2021/01/12 09:13:12;;;;;;;4.70;3.60;;;1.60;99.90;;;2.47;100.00;99064.69;4986660;28;20204;-64
2021/01/12 09:15:43;;;;;;;4.63;4.00;;;1.60;99.90;;;2.50;100.00;99064.28;4986309;28;20656;-62
2021/01/12 09:18:19;;;;;;;5.13;3.87;;;1.60;99.90;;;2.63;100.00;99065.38;4986133;28;20271;-64
2021/01/12 09:20:54;;;;;;;3.93;3.37;;;1.70;99.90;;;2.55;100.00;99062.91;4986409;28;20192;-65
2021/01/12 09:23:22;;;;;;;4.77;3.80;;;1.80;99.90;;;2.64;100.00;99056.41;4986065;28;20618;-65
2021/01/12 09:25:52;;;;;;;3.93;3.00;;;1.80;99.90;;;2.45;100.00;99066.72;4986407;28;20768;-60
2021/01/12 09:28:25;;;;;;;5.63;3.53;;;1.80;99.90;;;2.64;100.00;99051.91;4986051;28;20770;-63
2021/01/12 09:31:04;;;;;;;5.10;3.10;;;1.80;99.90;;;2.70;100.00;99063.59;4986360;28;20254;-59
2021/01/12 09:33:33;;;;;;;3.57;2.83;;;1.80;99.90;;;2.70;100.00;99058.28;5078279;28;20285;-60
2021/01/12 09:36:07;;;;;;;3.00;2.70;;;1.90;99.90;;;2.62;100.00;99061.09;5087921;28;20238;-62
2021/01/12 09:38:40;;;;;;;4.57;3.13;;;1.80;99.90;;;2.82;100.00;99056.69;5087978;28;20256;-61
2021/01/12 09:41:09;;;;;;;3.83;2.90;;;1.90;99.90;;;2.83;100.00;99053.00;5087793;28;20739;-61
2021/01/12 09:43:37;;;;;;;3.07;2.77;;;1.90;99.90;;;2.87;100.00;99046.28;5088008;28;20265;-61
2021/01/12 09:46:05;;;;;;;3.70;2.67;;;2.00;99.90;;;2.84;100.00;99055.47;5087834;28;20196;-59
2021/01/12 09:48:34;;;;;;;3.77;2.63;;;2.00;99.90;;;2.79;100.00;99046.47;5088290;28;20200;-62
2021/01/12 09:51:02;;;;;;;2.80;2.50;;;2.00;99.90;;;3.07;100.00;99050.69;5088340;28;20276;-61
2021/01/12 09:53:30;;;;;;;4.80;2.83;;;2.20;99.90;;;3.00;100.00;99041.84;5087691;28;20200;-61
2021/01/12 09:55:58;;;;;;;3.67;2.37;;;2.20;99.90;;;2.94;100.00;99041.81;5087747;28;20307;-60
2021/01/12 09:58:27;;;;;;;4.10;2.33;;;2.20;99.90;;;3.00;100.00;99038.34;5087673;28;20239;-59
2021/01/12 10:00:55;;;;;;;2.20;1.93;;;2.20;99.90;;;3.01;100.00;99032.03;5021995;28;20212;-60
2021/01/12 10:03:23;;;;;;;2.37;2.03;;;2.20;99.90;;;3.05;100.00;99030.59;4985418;28;20242;-59
2021/01/12 10:05:51;;;;;;;2.63;2.30;;;2.20;99.90;;;3.10;100.00;99029.00;4976622;28;20713;-59
2021/01/12 10:08:18;;;;;;;2.80;2.43;;;2.20;99.90;;;3.21;100.00;99031.09;4969997;28;20568;-64
2021/01/12 10:10:45;;;;;;;4.00;2.67;;;2.30;99.90;;;3.14;100.00;99024.94;4966238;28;20258;-64
2021/01/12 10:13:13;;;;;;;5.77;3.50;;;2.30;99.90;;;2.99;100.00;99015.44;4966360;28;20288;-61
2021/01/12 10:15:40;;;;;;;4.10;3.23;;;2.30;99.90;;;3.08;100.00;99017.72;4965856;28;20260;-63
2021/01/12 10:18:08;;;;;;;3.83;2.80;;;2.30;99.90;;;3.05;100.00;99020.78;4965726;28;20209;-63
2021/01/12 10:20:35;;;;;;;4.27;3.27;;;2.30;99.90;;;3.23;100.00;99017.59;4966264;28;20239;-64
2021/01/12 10:23:03;;;;;;;2.67;2.47;;;2.30;99.90;;;3.18;100.00;99017.38;4966059;28;20640;-62
2021/01/12 10:25:31;;;;;;;2.47;2.10;;;2.30;99.90;;;3.27;100.00;99016.13;4965985;28;20239;-62
2021/01/12 10:27:59;;;;;;;2.20;2.00;;;2.40;99.90;;;3.25;100.00;99015.50;4965890;28;20662;-62
2021/01/12 10:30:27;;;;;;;1.93;1.73;;;2.40;99.90;;;3.14;100.00;99011.63;4966761;28;20211;-61